sensor_id;sensor_type;location;lat;lon;timestamp;pressure;altitude;pressure_sealevel;temperature;humidity
65872;BME280;52653;50.080;21.992;2024-01-25T00:01:01;98569.20;;;6.15;87.41
65872;BME280;52653;50.080;21.992;2024-01-25T00:03:43;98567.63;;;6.18;87.34
65872;BME280;52653;50.080;21.992;2024-01-25T00:06:16;98569.19;;;6.19;87.04
65872;BME280;52653;50.080;21.992;2024-01-25T00:08:48;98573.55;;;6.20;87.01
65872;BME280;52653;50.080;21.992;2024-01-25T00:11:22;98568.84;;;6.20;87.07
65872;BME280;52653;50.080;21.992;2024-01-25T00:13:54;98566.59;;;6.18;86.98
65872;BME280;52653;50.080;21.992;2024-01-25T00:16:27;98563.80;;;6.17;86.71
65872;BME280;52653;50.080;21.992;2024-01-25T00:18:59;98566.06;;;6.18;85.91
65872;BME280;52653;50.080;21.992;2024-01-25T00:21:33;98567.63;;;6.20;85.59
65872;BME280;52653;50.080;21.992;2024-01-25T00:24:10;98569.73;;;6.19;85.30
65872;BME280;52653;50.080;21.992;2024-01-25T00:26:42;98571.63;;;6.19;85.31
65872;BME280;52653;50.080;21.992;2024-01-25T00:29:15;98564.67;;;6.21;84.43
65872;BME280;52653;50.080;21.992;2024-01-25T00:31:47;98581.90;;;6.29;84.13
65872;BME280;52653;50.080;21.992;2024-01-25T00:34:21;98587.83;;;6.31;85.49
65872;BME280;52653;50.080;21.992;2024-01-25T00:36:57;98577.38;;;6.29;86.34
65872;BME280;52653;50.080;21.992;2024-01-25T00:39:30;98578.44;;;6.26;86.45
65872;BME280;52653;50.080;21.992;2024-01-25T00:42:05;98567.64;;;6.22;86.74
65872;BME280;52653;50.080;21.992;2024-01-25T00:44:39;98569.55;;;6.18;86.95
65872;BME280;52653;50.080;21.992;2024-01-25T00:47:12;98562.95;;;6.14;87.13
65872;BME280;52653;50.080;21.992;2024-01-25T00:49:46;98569.21;;;6.10;87.09
65872;BME280;52653;50.080;21.992;2024-01-25T00:52:22;98557.54;;;6.09;86.60
65872;BME280;52653;50.080;21.992;2024-01-25T00:54:55;98554.77;;;6.10;86.16
65872;BME280;52653;50.080;21.992;2024-01-25T00:57:29;98554.77;;;6.11;85.92
65872;BME280;52653;50.080;21.992;2024-01-25T01:00:02;98565.55;;;6.15;85.10
65872;BME280;52653;50.080;21.992;2024-01-25T01:02:45;98579.65;;;6.18;85.44
65872;BME280;52653;50.080;21.992;2024-01-25T01:05:19;98574.08;;;6.18;85.53
65872;BME280;52653;50.080;21.992;2024-01-25T01:07:53;98608.03;;;6.17;86.45
65872;BME280;52653;50.080;21.992;2024-01-25T01:10:28;98630.14;;;6.10;88.53
65872;BME280;52653;50.080;21.992;2024-01-25T01:13:00;98619.16;;;5.98;90.47
65872;BME280;52653;50.080;21.992;2024-01-25T01:15:33;98611.27;;;5.81;90.85
65872;BME280;52653;50.080;21.992;2024-01-25T01:18:08;98602.72;;;5.64;91.38
65872;BME280;52653;50.080;21.992;2024-01-25T01:20:41;98595.73;;;5.53;91.74
65872;BME280;52653;50.080;21.992;2024-01-25T01:23:13;98598.14;;;5.45;92.28
65872;BME280;52653;50.080;21.992;2024-01-25T01:25:48;98601.09;;;5.38;92.61
65872;BME280;52653;50.080;21.992;2024-01-25T01:28:23;98589.06;;;5.33;92.92
65872;BME280;52653;50.080;21.992;2024-01-25T01:30:56;98580.20;;;5.31;91.92
65872;BME280;52653;50.080;21.992;2024-01-25T01:33:29;98577.61;;;5.36;91.24
65872;BME280;52653;50.080;21.992;2024-01-25T01:36:04;98567.18;;;5.36;90.91
65872;BME280;52653;50.080;21.992;2024-01-25T01:38:39;98574.66;;;5.37;90.77
65872;BME280;52653;50.080;21.992;2024-01-25T01:41:12;98569.44;;;5.37;91.00
65872;BME280;52653;50.080;21.992;2024-01-25T01:43:47;98575.85;;;5.34;91.41
65872;BME280;52653;50.080;21.992;2024-01-25T01:46:31;98562.45;;;5.30;91.55
65872;BME280;52653;50.080;21.992;2024-01-25T01:49:06;98554.98;;;5.27;91.50
65872;BME280;52653;50.080;21.992;2024-01-25T01:51:40;98538.98;;;5.26;91.03
65872;BME280;52653;50.080;21.992;2024-01-25T01:54:14;98541.41;;;5.26;90.73
65872;BME280;52653;50.080;21.992;2024-01-25T01:56:49;98529.42;;;5.26;90.44
65872;BME280;52653;50.080;21.992;2024-01-25T01:59:22;98528.90;;;5.26;90.27
65872;BME280;52653;50.080;21.992;2024-01-25T02:01:56;98527.52;;;5.27;90.28
65872;BME280;52653;50.080;21.992;2024-01-25T02:04:29;98528.38;;;5.28;90.22
65872;BME280;52653;50.080;21.992;2024-01-25T02:07:02;98542.46;;;5.30;90.21
65872;BME280;52653;50.080;21.992;2024-01-25T02:09:36;98539.51;;;5.31;90.36
65872;BME280;52653;50.080;21.992;2024-01-25T02:12:08;98539.88;;;5.34;90.50
65872;BME280;52653;50.080;21.992;2024-01-25T02:14:43;98536.23;;;5.38;90.16
65872;BME280;52653;50.080;21.992;2024-01-25T02:17:15;98544.05;;;5.40;90.21
65872;BME280;52653;50.080;21.992;2024-01-25T02:19:47;98547.88;;;5.43;90.25
65872;BME280;52653;50.080;21.992;2024-01-25T02:22:20;98541.97;;;5.44;90.31
65872;BME280;52653;50.080;21.992;2024-01-25T02:24:53;98544.40;;;5.42;91.07
65872;BME280;52653;50.080;21.992;2024-01-25T02:27:26;98532.23;;;5.42;90.77
65872;BME280;52653;50.080;21.992;2024-01-25T02:30:00;98540.05;;;5.39;90.90
65872;BME280;52653;50.080;21.992;2024-01-25T02:32:35;98539.53;;;5.39;89.79
65872;BME280;52653;50.080;21.992;2024-01-25T02:35:08;98542.84;;;5.41;89.70
65872;BME280;52653;50.080;21.992;2024-01-25T02:37:43;98539.35;;;5.40;90.06
65872;BME280;52653;50.080;21.992;2024-01-25T02:40:16;98528.40;;;5.40;90.13
65872;BME280;52653;50.080;21.992;2024-01-25T02:42:49;98525.10;;;5.38;90.39
65872;BME280;52653;50.080;21.992;2024-01-25T02:45:21;98532.76;;;5.36;90.25
65872;BME280;52653;50.080;21.992;2024-01-25T02:47:54;98537.80;;;5.36;89.71
65872;BME280;52653;50.080;21.992;2024-01-25T02:50:30;98532.23;;;5.37;89.61
65872;BME280;52653;50.080;21.992;2024-01-25T03:06:36;98551.23;;;5.61;89.12
65872;BME280;52653;50.080;21.992;2024-01-25T03:09:13;98541.66;;;5.60;89.64
65872;BME280;52653;50.080;21.992;2024-01-25T03:11:49;98543.73;;;5.49;90.59
65872;BME280;52653;50.080;21.992;2024-01-25T03:14:25;98535.88;;;5.36;91.23
65872;BME280;52653;50.080;21.992;2024-01-25T03:17:01;98544.55;;;5.24;91.42
65872;BME280;52653;50.080;21.992;2024-01-25T03:19:36;98532.51;;;5.17;91.62
65872;BME280;52653;50.080;21.992;2024-01-25T03:22:26;98547.11;;;5.10;91.94
65872;BME280;52653;50.080;21.992;2024-01-25T03:25:02;98550.55;;;5.07;92.34
65872;BME280;52653;50.080;21.992;2024-01-25T03:27:40;98544.98;;;5.05;92.44
65872;BME280;52653;50.080;21.992;2024-01-25T03:30:15;98535.25;;;5.02;92.68
65872;BME280;52653;50.080;21.992;2024-01-25T03:32:52;98522.91;;;5.01;92.44
65872;BME280;52653;50.080;21.992;2024-01-25T03:35:38;98528.83;;;5.00;92.34
65872;BME280;52653;50.080;21.992;2024-01-25T03:38:24;98530.04;;;4.99;91.83
65872;BME280;52653;50.080;21.992;2024-01-25T03:41:08;98526.55;;;5.01;91.31
65872;BME280;52653;50.080;21.992;2024-01-25T03:43:46;98519.79;;;5.05;91.17
65872;BME280;52653;50.080;21.992;2024-01-25T03:46:19;98523.27;;;5.08;91.08
65872;BME280;52653;50.080;21.992;2024-01-25T03:48:54;98535.98;;;5.11;91.15
65872;BME280;52653;50.080;21.992;2024-01-25T03:51:32;98534.77;;;5.11;91.01
65872;BME280;52653;50.080;21.992;2024-01-25T03:54:08;98530.95;;;5.13;90.72
65872;BME280;52653;50.080;21.992;2024-01-25T03:56:44;98532.52;;;5.16;90.18
65872;BME280;52653;50.080;21.992;2024-01-25T03:59:18;98531.46;;;5.19;89.67
65872;BME280;52653;50.080;21.992;2024-01-25T04:01:51;98521.77;;;5.22;89.41
65872;BME280;52653;50.080;21.992;2024-01-25T04:04:26;98520.56;;;5.22;89.16
65872;BME280;52653;50.080;21.992;2024-01-25T04:07:03;98522.29;;;5.24;88.37
65872;BME280;52653;50.080;21.992;2024-01-25T04:09:38;98528.20;;;5.29;87.66
65872;BME280;52653;50.080;21.992;2024-01-25T04:12:13;98530.29;;;5.31;87.58
65872;BME280;52653;50.080;21.992;2024-01-25T04:14:49;98531.02;;;5.35;87.34
65872;BME280;52653;50.080;21.992;2024-01-25T04:17:32;98529.10;;;5.36;86.95
65872;BME280;52653;50.080;21.992;2024-01-25T04:20:17;98519.02;;;5.36;86.77
65872;BME280;52653;50.080;21.992;2024-01-25T04:22:51;98534.15;;;5.34;86.78
65872;BME280;52653;50.080;21.992;2024-01-25T04:25:26;98538.99;;;5.33;86.68
65872;BME280;52653;50.080;21.992;2024-01-25T04:28:03;98544.02;;;5.32;86.84
65872;BME280;52653;50.080;21.992;2024-01-25T04:30:38;98537.06;;;5.30;86.59
65872;BME280;52653;50.080;21.992;2024-01-25T04:33:22;98539.84;;;5.29;86.79
65872;BME280;52653;50.080;21.992;2024-01-25T04:36:01;98541.94;;;5.27;87.00
65872;BME280;52653;50.080;21.992;2024-01-25T04:38:36;98543.16;;;5.23;87.33
65872;BME280;52653;50.080;21.992;2024-01-25T04:41:10;98537.39;;;5.19;87.34
65872;BME280;52653;50.080;21.992;2024-01-25T04:43:43;98521.04;;;5.16;87.58
65872;BME280;52653;50.080;21.992;2024-01-25T04:46:26;98524.34;;;5.13;87.94
65872;BME280;52653;50.080;21.992;2024-01-25T04:49:03;98526.23;;;5.08;88.33
65872;BME280;52653;50.080;21.992;2024-01-25T04:51:40;98534.55;;;5.04;88.54
65872;BME280;52653;50.080;21.992;2024-01-25T04:54:24;98530.21;;;5.00;88.55
65872;BME280;52653;50.080;21.992;2024-01-25T04:57:01;98522.56;;;4.97;88.88
65872;BME280;52653;50.080;21.992;2024-01-25T04:59:41;98530.70;;;4.94;88.77
65872;BME280;52653;50.080;21.992;2024-01-25T05:02:20;98535.55;;;4.93;88.89
65872;BME280;52653;50.080;21.992;2024-01-25T05:04:54;98537.81;;;4.91;89.01
65872;BME280;52653;50.080;21.992;2024-01-25T05:07:44;98533.13;;;4.90;89.17
65872;BME280;52653;50.080;21.992;2024-01-25T05:10:18;98544.06;;;4.88;89.17
65872;BME280;52653;50.080;21.992;2024-01-25T05:12:56;98547.19;;;4.88;89.01
65872;BME280;52653;50.080;21.992;2024-01-25T05:15:29;98549.10;;;4.88;89.00
65872;BME280;52653;50.080;21.992;2024-01-25T05:18:02;98549.80;;;4.87;88.50
65872;BME280;52653;50.080;21.992;2024-01-25T05:20:43;98551.54;;;4.88;88.30
65872;BME280;52653;50.080;21.992;2024-01-25T05:23:16;98553.63;;;4.89;88.21
65872;BME280;52653;50.080;21.992;2024-01-25T05:25:49;98553.27;;;4.88;87.94
65872;BME280;52653;50.080;21.992;2024-01-25T05:28:28;98556.92;;;4.89;87.71
65872;BME280;52653;50.080;21.992;2024-01-25T05:31:03;98551.20;;;4.90;87.58
65872;BME280;52653;50.080;21.992;2024-01-25T05:33:47;98554.33;;;4.92;87.37
65872;BME280;52653;50.080;21.992;2024-01-25T05:36:41;98562.14;;;4.93;87.09
65872;BME280;52653;50.080;21.992;2024-01-25T05:39:25;98543.55;;;4.94;86.79
65872;BME280;52653;50.080;21.992;2024-01-25T05:42:00;98552.80;;;4.97;86.50
65872;BME280;52653;50.080;21.992;2024-01-25T05:44:42;98553.33;;;4.99;86.23
65872;BME280;52653;50.080;21.992;2024-01-25T05:47:25;98554.20;;;5.01;85.50
65872;BME280;52653;50.080;21.992;2024-01-25T05:50:01;98554.20;;;5.05;85.42
65872;BME280;52653;50.080;21.992;2024-01-25T05:52:43;98552.99;;;5.07;85.10
65872;BME280;52653;50.080;21.992;2024-01-25T05:55:18;98550.92;;;5.09;84.77
65872;BME280;52653;50.080;21.992;2024-01-25T05:57:51;98557.89;;;5.11;84.68
65872;BME280;52653;50.080;21.992;2024-01-25T06:00:33;98550.24;;;5.13;84.31
65872;BME280;52653;50.080;21.992;2024-01-25T06:03:09;98561.37;;;5.15;84.32
65872;BME280;52653;50.080;21.992;2024-01-25T06:05:46;98558.94;;;5.16;84.38
65872;BME280;52653;50.080;21.992;2024-01-25T06:08:22;98560.67;;;5.16;84.47
65872;BME280;52653;50.080;21.992;2024-01-25T06:11:06;98556.67;;;5.17;84.33
65872;BME280;52653;50.080;21.992;2024-01-25T06:13:42;98565.71;;;5.16;84.12
65872;BME280;52653;50.080;21.992;2024-01-25T06:16:21;98564.33;;;5.16;84.22
65872;BME280;52653;50.080;21.992;2024-01-25T06:18:54;98564.50;;;5.15;84.52
65872;BME280;52653;50.080;21.992;2024-01-25T06:21:36;98567.98;;;5.13;84.44
65872;BME280;52653;50.080;21.992;2024-01-25T06:24:11;98570.23;;;5.12;84.19
65872;BME280;52653;50.080;21.992;2024-01-25T06:26:45;98574.23;;;5.13;84.45
65872;BME280;52653;50.080;21.992;2024-01-25T06:29:18;98571.97;;;5.14;84.16
65872;BME280;52653;50.080;21.992;2024-01-25T06:32:14;98566.59;;;5.15;84.47
65872;BME280;52653;50.080;21.992;2024-01-25T06:34:58;98574.76;;;5.17;84.16
65872;BME280;52653;50.080;21.992;2024-01-25T06:37:51;98577.89;;;5.18;83.48
65872;BME280;52653;50.080;21.992;2024-01-25T06:40:45;98569.58;;;5.21;83.16
65872;BME280;52653;50.080;21.992;2024-01-25T06:43:20;98564.19;;;5.23;82.97
65872;BME280;52653;50.080;21.992;2024-01-25T06:45:53;98565.93;;;5.25;82.97
65872;BME280;52653;50.080;21.992;2024-01-25T06:48:32;98573.23;;;5.26;82.59
65872;BME280;52653;50.080;21.992;2024-01-25T06:51:05;98557.07;;;5.28;82.52
65872;BME280;52653;50.080;21.992;2024-01-25T06:53:48;98572.71;;;5.30;81.59
65872;BME280;52653;50.080;21.992;2024-01-25T06:56:28;98567.52;;;5.35;81.32
65872;BME280;52653;50.080;21.992;2024-01-25T06:59:02;98566.14;;;5.39;80.91
65872;BME280;52653;50.080;21.992;2024-01-25T07:01:35;98569.96;;;5.44;79.51
65872;BME280;52653;50.080;21.992;2024-01-25T07:04:08;98568.42;;;5.49;79.45
65872;BME280;52653;50.080;21.992;2024-01-25T07:06:44;98570.52;;;5.53;79.16
65872;BME280;52653;50.080;21.992;2024-01-25T07:09:18;98565.82;;;5.56;79.56
65872;BME280;52653;50.080;21.992;2024-01-25T07:11:54;98564.95;;;5.57;78.53
65872;BME280;52653;50.080;21.992;2024-01-25T07:14:39;98556.45;;;5.62;78.24
65872;BME280;52653;50.080;21.992;2024-01-25T07:17:14;98559.58;;;5.65;77.50
65872;BME280;52653;50.080;21.992;2024-01-25T07:19:50;98557.31;;;5.69;76.48
65872;BME280;52653;50.080;21.992;2024-01-25T07:22:26;98553.68;;;5.74;76.25
65872;BME280;52653;50.080;21.992;2024-01-25T07:25:04;98557.50;;;5.79;75.47
65872;BME280;52653;50.080;21.992;2024-01-25T07:27:40;98556.11;;;5.83;75.68
65872;BME280;52653;50.080;21.992;2024-01-25T07:30:21;98553.34;;;5.87;75.16
65872;BME280;52653;50.080;21.992;2024-01-25T07:32:54;98550.58;;;5.92;75.33
65872;BME280;52653;50.080;21.992;2024-01-25T07:35:37;98559.80;;;5.96;74.96
65872;BME280;52653;50.080;21.992;2024-01-25T07:38:13;98557.20;;;6.01;75.08
65872;BME280;52653;50.080;21.992;2024-01-25T07:40:46;98549.71;;;6.06;75.63
65872;BME280;52653;50.080;21.992;2024-01-25T07:43:19;98555.27;;;6.09;75.29
65872;BME280;52653;50.080;21.992;2024-01-25T07:45:55;98555.64;;;6.12;75.25
65872;BME280;52653;50.080;21.992;2024-01-25T07:48:27;98551.45;;;6.18;75.77
65872;BME280;52653;50.080;21.992;2024-01-25T07:51:01;98551.80;;;6.22;75.35
65872;BME280;52653;50.080;21.992;2024-01-25T07:53:40;98547.62;;;6.24;75.37
65872;BME280;52653;50.080;21.992;2024-01-25T07:56:13;98556.84;;;6.23;74.98
65872;BME280;52653;50.080;21.992;2024-01-25T07:58:58;98546.05;;;6.22;75.15
65872;BME280;52653;50.080;21.992;2024-01-25T08:01:31;98552.30;;;6.22;75.30
65872;BME280;52653;50.080;21.992;2024-01-25T08:04:23;98550.22;;;6.22;75.81
65872;BME280;52653;50.080;21.992;2024-01-25T08:07:07;98542.89;;;6.21;75.91
65872;BME280;52653;50.080;21.992;2024-01-25T08:09:41;98540.13;;;6.23;76.24
65872;BME280;52653;50.080;21.992;2024-01-25T08:12:14;98537.34;;;6.27;76.47
65872;BME280;52653;50.080;21.992;2024-01-25T08:14:46;98543.06;;;6.31;76.63
65872;BME280;52653;50.080;21.992;2024-01-25T08:17:22;98543.77;;;6.36;77.10
65872;BME280;52653;50.080;21.992;2024-01-25T08:19:58;98543.76;;;6.34;77.20
65872;BME280;52653;50.080;21.992;2024-01-25T08:22:31;98538.36;;;6.32;77.80
65872;BME280;52653;50.080;21.992;2024-01-25T08:25:08;98539.23;;;6.31;78.37
65872;BME280;52653;50.080;21.992;2024-01-25T08:28:05;98537.84;;;6.31;78.50
65872;BME280;52653;50.080;21.992;2024-01-25T08:30:45;98529.50;;;6.28;78.88
65872;BME280;52653;50.080;21.992;2024-01-25T08:33:21;98534.02;;;6.28;79.10
65872;BME280;52653;50.080;21.992;2024-01-25T08:35:55;98533.31;;;6.31;79.06
65872;BME280;52653;50.080;21.992;2024-01-25T08:38:32;98533.83;;;6.38;78.63
65872;BME280;52653;50.080;21.992;2024-01-25T08:41:15;98526.32;;;6.45;78.33
65872;BME280;52653;50.080;21.992;2024-01-25T08:43:48;98528.77;;;6.50;78.38
65872;BME280;52653;50.080;21.992;2024-01-25T08:46:23;98535.20;;;6.52;78.36
65872;BME280;52653;50.080;21.992;2024-01-25T08:49:22;98528.41;;;6.51;78.74
65872;BME280;52653;50.080;21.992;2024-01-25T08:51:59;98516.38;;;6.52;78.88
65872;BME280;52653;50.080;21.992;2024-01-25T08:54:32;98524.74;;;6.53;78.32
65872;BME280;52653;50.080;21.992;2024-01-25T08:57:28;98522.45;;;6.57;78.53
65872;BME280;52653;50.080;21.992;2024-01-25T09:00:01;98524.89;;;6.57;78.42
65872;BME280;52653;50.080;21.992;2024-01-25T09:02:36;98529.59;;;6.59;78.97
65872;BME280;52653;50.080;21.992;2024-01-25T09:05:09;98533.78;;;6.56;79.56
65872;BME280;52653;50.080;21.992;2024-01-25T09:07:44;98534.33;;;6.48;80.09
65872;BME280;52653;50.080;21.992;2024-01-25T09:10:28;98522.16;;;6.36;81.29
65872;BME280;52653;50.080;21.992;2024-01-25T09:13:02;98524.98;;;6.26;82.49
65872;BME280;52653;50.080;21.992;2024-01-25T09:15:45;98533.33;;;6.22;83.35
65872;BME280;52653;50.080;21.992;2024-01-25T09:18:18;98537.17;;;6.17;83.82
65872;BME280;52653;50.080;21.992;2024-01-25T09:20:51;98534.39;;;6.10;84.03
65872;BME280;52653;50.080;21.992;2024-01-25T09:23:27;98545.88;;;6.05;84.72
65872;BME280;52653;50.080;21.992;2024-01-25T09:26:00;98560.34;;;6.00;85.35
65872;BME280;52653;50.080;21.992;2024-01-25T09:28:39;98556.48;;;5.90;85.86
65872;BME280;52653;50.080;21.992;2024-01-25T09:31:17;98556.29;;;5.84;86.29
65872;BME280;52653;50.080;21.992;2024-01-25T09:33:49;98564.30;;;5.74;87.03
65872;BME280;52653;50.080;21.992;2024-01-25T09:36:25;98570.53;;;5.64;87.63
65872;BME280;52653;50.080;21.992;2024-01-25T09:39:00;98567.56;;;5.54;88.43
65872;BME280;52653;50.080;21.992;2024-01-25T09:41:55;98575.72;;;5.48;89.50
65872;BME280;52653;50.080;21.992;2024-01-25T09:44:31;98578.14;;;5.44;90.13
65872;BME280;52653;50.080;21.992;2024-01-25T09:47:25;98575.36;;;5.44;90.86
65872;BME280;52653;50.080;21.992;2024-01-25T09:50:12;98576.40;;;5.41;90.93
65872;BME280;52653;50.080;21.992;2024-01-25T09:52:53;98571.18;;;5.36;91.32
65872;BME280;52653;50.080;21.992;2024-01-25T09:55:32;98578.83;;;5.34;91.77
65872;BME280;52653;50.080;21.992;2024-01-25T09:58:08;98582.46;;;5.32;92.04
65872;BME280;52653;50.080;21.992;2024-01-25T10:00:43;98580.36;;;5.27;92.45
65872;BME280;52653;50.080;21.992;2024-01-25T10:03:18;98583.14;;;5.23;92.76
65872;BME280;52653;50.080;21.992;2024-01-25T10:05:53;98578.43;;;5.20;93.24
65872;BME280;52653;50.080;21.992;2024-01-25T10:08:29;98581.54;;;5.19;93.14
65872;BME280;52653;50.080;21.992;2024-01-25T10:11:09;98577.54;;;5.18;93.69
65872;BME280;52653;50.080;21.992;2024-01-25T10:13:47;98584.66;;;5.14;93.95
65872;BME280;52653;50.080;21.992;2024-01-25T10:16:27;98580.83;;;5.10;94.25
65872;BME280;52653;50.080;21.992;2024-01-25T10:19:07;98578.54;;;5.08;94.67
65872;BME280;52653;50.080;21.992;2024-01-25T10:21:44;98583.39;;;5.06;95.02
65872;BME280;52653;50.080;21.992;2024-01-25T10:24:29;98579.23;;;5.05;94.79
65872;BME280;52653;50.080;21.992;2024-01-25T10:27:22;98573.84;;;5.05;95.07
65872;BME280;52653;50.080;21.992;2024-01-25T10:30:15;98568.11;;;5.05;94.99
65872;BME280;52653;50.080;21.992;2024-01-25T10:33:03;98573.85;;;5.08;95.00
65872;BME280;52653;50.080;21.992;2024-01-25T10:35:57;98571.96;;;5.12;95.58
65872;BME280;52653;50.080;21.992;2024-01-25T10:38:58;98570.92;;;5.14;95.51
65872;BME280;52653;50.080;21.992;2024-01-25T10:41:45;98585.36;;;5.14;95.41
65872;BME280;52653;50.080;21.992;2024-01-25T10:44:36;98580.84;;;5.13;95.16
65872;BME280;52653;50.080;21.992;2024-01-25T10:47:30;98583.08;;;5.10;94.90
65872;BME280;52653;50.080;21.992;2024-01-25T10:50:13;98583.40;;;5.07;95.17
65872;BME280;52653;50.080;21.992;2024-01-25T10:53:09;98589.13;;;5.06;95.49
65872;BME280;52653;50.080;21.992;2024-01-25T10:56:05;98596.27;;;5.05;95.57
65872;BME280;52653;50.080;21.992;2024-01-25T10:58:43;98597.30;;;5.04;95.76
65872;BME280;52653;50.080;21.992;2024-01-25T11:01:28;98600.42;;;5.05;96.10
65872;BME280;52653;50.080;21.992;2024-01-25T11:04:22;98597.47;;;5.04;95.84
65872;BME280;52653;50.080;21.992;2024-01-25T11:07:10;98585.33;;;5.09;95.58
65872;BME280;52653;50.080;21.992;2024-01-25T11:10:05;98590.08;;;5.21;95.33
65872;BME280;52653;50.080;21.992;2024-01-25T11:12:49;98589.92;;;5.27;94.44
65872;BME280;52653;50.080;21.992;2024-01-25T11:15:38;98584.36;;;5.27;94.67
65872;BME280;52653;50.080;21.992;2024-01-25T11:18:11;98559.33;;;5.26;94.76
65872;BME280;52653;50.080;21.992;2024-01-25T11:21:24;98580.02;;;5.27;94.64
65872;BME280;52653;50.080;21.992;2024-01-25T11:24:02;98581.09;;;5.37;95.01
65872;BME280;52653;50.080;21.992;2024-01-25T11:26:44;98575.04;;;5.49;94.81
65872;BME280;52653;50.080;21.992;2024-01-25T11:29:30;98578.34;;;5.53;94.52
65872;BME280;52653;50.080;21.992;2024-01-25T11:32:25;98576.27;;;5.59;94.22
65872;BME280;52653;50.080;21.992;2024-01-25T11:35:10;98577.81;;;5.57;93.95
65872;BME280;52653;50.080;21.992;2024-01-25T11:37:52;98587.38;;;5.57;94.25
65872;BME280;52653;50.080;21.992;2024-01-25T11:40:26;98579.06;;;5.63;93.93
65872;BME280;52653;50.080;21.992;2024-01-25T11:43:10;98581.52;;;5.72;93.78
65872;BME280;52653;50.080;21.992;2024-01-25T11:45:44;98582.73;;;5.73;93.36
65872;BME280;52653;50.080;21.992;2024-01-25T11:48:19;98582.02;;;5.70;93.10
65872;BME280;52653;50.080;21.992;2024-01-25T11:51:04;98586.55;;;5.72;93.29
65872;BME280;52653;50.080;21.992;2024-01-25T11:53:47;98586.91;;;5.74;92.96
65872;BME280;52653;50.080;21.992;2024-01-25T11:56:26;98574.56;;;5.76;92.33
65872;BME280;52653;50.080;21.992;2024-01-25T11:59:00;98587.77;;;5.82;91.77
65872;BME280;52653;50.080;21.992;2024-01-25T12:01:40;98590.59;;;5.87;91.52
65872;BME280;52653;50.080;21.992;2024-01-25T12:04:36;98602.95;;;5.90;91.62
65872;BME280;52653;50.080;21.992;2024-01-25T12:07:32;98608.51;;;5.86;91.44
65872;BME280;52653;50.080;21.992;2024-01-25T12:10:27;98605.52;;;5.79;91.58
65872;BME280;52653;50.080;21.992;2024-01-25T12:13:20;98607.25;;;5.71;91.80
65872;BME280;52653;50.080;21.992;2024-01-25T12:16:07;98602.73;;;5.63;91.91
65872;BME280;52653;50.080;21.992;2024-01-25T12:19:02;98611.41;;;5.56;92.77
65872;BME280;52653;50.080;21.992;2024-01-25T12:21:36;98620.94;;;5.48;92.88
65872;BME280;52653;50.080;21.992;2024-01-25T12:24:31;98621.08;;;5.37;93.93
65872;BME280;52653;50.080;21.992;2024-01-25T12:27:21;98627.15;;;5.32;94.92
65872;BME280;52653;50.080;21.992;2024-01-25T12:30:16;98634.26;;;5.27;95.25
65872;BME280;52653;50.080;21.992;2024-01-25T12:33:09;98631.98;;;5.24;95.95
65872;BME280;52653;50.080;21.992;2024-01-25T12:35:43;98636.82;;;5.19;96.07
65872;BME280;52653;50.080;21.992;2024-01-25T12:38:19;98636.98;;;5.16;96.30
65872;BME280;52653;50.080;21.992;2024-01-25T12:41:12;98643.21;;;5.10;96.50
65872;BME280;52653;50.080;21.992;2024-01-25T12:43:45;98651.00;;;5.05;96.54
65872;BME280;52653;50.080;21.992;2024-01-25T12:46:28;98651.85;;;5.00;96.80
65872;BME280;52653;50.080;21.992;2024-01-25T12:49:04;98656.72;;;4.99;97.07
65872;BME280;52653;50.080;21.992;2024-01-25T12:51:58;98659.69;;;5.01;97.35
65872;BME280;52653;50.080;21.992;2024-01-25T12:54:31;98648.21;;;5.00;97.28
65872;BME280;52653;50.080;21.992;2024-01-25T12:57:14;98659.16;;;4.99;97.54
65872;BME280;52653;50.080;21.992;2024-01-25T13:00:00;98665.75;;;4.98;97.10
65872;BME280;52653;50.080;21.992;2024-01-25T13:02:37;98658.79;;;4.96;97.30
65872;BME280;52653;50.080;21.992;2024-01-25T13:05:30;98667.30;;;4.96;97.19
65872;BME280;52653;50.080;21.992;2024-01-25T13:08:09;98665.56;;;4.96;97.07
65872;BME280;52653;50.080;21.992;2024-01-25T13:10:42;98667.83;;;4.96;97.18
65872;BME280;52653;50.080;21.992;2024-01-25T13:13:20;98675.80;;;4.95;97.27
65872;BME280;52653;50.080;21.992;2024-01-25T13:15:52;98682.91;;;4.93;96.99
65872;BME280;52653;50.080;21.992;2024-01-25T13:18:25;98678.56;;;4.92;97.22
65872;BME280;52653;50.080;21.992;2024-01-25T13:21:04;98686.90;;;4.89;96.68
65872;BME280;52653;50.080;21.992;2024-01-25T13:23:37;98688.11;;;4.89;96.74
65872;BME280;52653;50.080;21.992;2024-01-25T13:26:09;98688.11;;;4.89;96.77
65872;BME280;52653;50.080;21.992;2024-01-25T13:29:04;98681.16;;;4.90;96.32
65872;BME280;52653;50.080;21.992;2024-01-25T13:31:57;98693.33;;;4.92;96.05
65872;BME280;52653;50.080;21.992;2024-01-25T13:34:30;98694.40;;;4.95;95.89
65872;BME280;52653;50.080;21.992;2024-01-25T13:37:06;98698.08;;;4.99;95.42
65872;BME280;52653;50.080;21.992;2024-01-25T13:39:41;98698.09;;;5.03;94.96
65872;BME280;52653;50.080;21.992;2024-01-25T13:42:21;98705.41;;;5.07;95.01
65872;BME280;52653;50.080;21.992;2024-01-25T13:45:03;98698.12;;;5.08;95.13
65872;BME280;52653;50.080;21.992;2024-01-25T13:47:55;98698.80;;;5.07;95.33
65872;BME280;52653;50.080;21.992;2024-01-25T13:50:28;98697.76;;;5.05;95.47
65872;BME280;52653;50.080;21.992;2024-01-25T13:53:02;98706.62;;;5.03;95.21
65872;BME280;52653;50.080;21.992;2024-01-25T13:55:43;98699.65;;;5.02;95.30
65872;BME280;52653;50.080;21.992;2024-01-25T13:58:18;98710.07;;;4.98;95.34
65872;BME280;52653;50.080;21.992;2024-01-25T14:00:52;98710.23;;;4.96;95.88
65872;BME280;52653;50.080;21.992;2024-01-25T14:03:28;98716.27;;;4.92;95.87
65872;BME280;52653;50.080;21.992;2024-01-25T14:06:21;98724.59;;;4.90;96.01
65872;BME280;52653;50.080;21.992;2024-01-25T14:08:58;98721.81;;;4.87;95.93
65872;BME280;52653;50.080;21.992;2024-01-25T14:11:37;98726.14;;;4.86;95.81
65872;BME280;52653;50.080;21.992;2024-01-25T14:14:19;98735.17;;;4.86;95.90